Flowery Branch, GA (30542)

09:17 AM EDT on august 25, 2016 (GMT -0400)
Sterling on the Lake | | Change Station

Elev 1000 ft 34.15 °N, 83.90 °W | Updated 51 seconds ago

Clear
Cer senin
72.1 °F
Feels Like 72.1 °F
N
0.0
Vânt variabil Vânt from SSV

astăzi
High -- | Low -- °F
--% Chance of Precip.
Ieri
High -- | Low -- °F
Precip. -- inch
Presiunea 30.22 inch
Vizibilitatea 10.0 mile
Nori Cer senin
Punctul de rouă 71 °F
Umiditatea 98%
Precipitaţii 0.00 inch
Adâncimea zăpezii Not available.
7:04 AM 8:10 PM
Ultimul pătrar, 45% visible
METAR KGVL 251253Z AUTO 26003KT 10SM CLR 22/21 A3026 RMK AO2 SLP232 T02220211
Presiunea 30.22 inch
Vizibilitatea 10.0 mile
Nori Cer senin
Punctul de rouă 71 °F
Umiditatea 98%
Precipitaţii 0.00 inch
Adâncimea zăpezii Not available.
7:04 AM 8:10 PM
Ultimul pătrar, 45% visible
METAR KGVL 251253Z AUTO 26003KT 10SM CLR 22/21 A3026 RMK AO2 SLP232 T02220211

10-Day Weather Forecast

Almanac

Astronomie

Aug. 25, 2016 Răsărit Apus
Timpul Actual
Crepusculul Civil
Crepusculul nautic
Răsărit Astronomic
Luna
Durata zilei lumină
Lungimea zilei
Tomorrow will be .
, % of the Moon is Illuminated

Extremele de azi

State Highs State Lows

Community

WunderPhotos

Upload Photos

1,934,842 photos uploaded!

WunderBlog® & News

Nearby

Calitatea aerului

  Calitatea aerului Index de calitate a aerului Poluat
Not available.

Adâncimea zapezii

Station Depth Elevation

Earthquake Activity

Oraş Distance Mag. Time & Date
Minimum magnitude displayed is 2.5.

Coastal Water Temperatures

Locul Temperatura

Stations

Nearby Weather Stations

Locaţia staţiei Temp Vânt rece Punctul de rouă Umiditatea Vânt Precip. Elev Actualizare Type
                   

Watches & Warnings

There are currently no watches in effect.